createdAt,value
2023-05-14T00:00:19.245Z,40.18
2023-05-14T00:00:49.337Z,40.15
2023-05-14T00:01:19.471Z,40.20
2023-05-14T00:01:49.613Z,40.21
2023-05-14T00:02:19.605Z,40.21
2023-05-14T00:02:49.787Z,40.20
2023-05-14T00:03:19.860Z,40.21
2023-05-14T00:03:49.868Z,40.24
2023-05-14T00:04:19.886Z,40.21
2023-05-14T00:04:49.872Z,40.21
2023-05-14T00:05:19.985Z,40.23
2023-05-14T00:05:50.093Z,40.19
2023-05-14T00:06:20.220Z,40.25
2023-05-14T00:06:50.221Z,40.20
2023-05-14T00:07:20.214Z,40.23
2023-05-14T00:07:50.316Z,40.22
2023-05-14T00:08:20.431Z,40.23
2023-05-14T00:08:50.534Z,40.18
2023-05-14T00:09:20.658Z,40.24
2023-05-14T00:09:50.765Z,40.24
2023-05-14T00:10:21.064Z,40.20
2023-05-14T00:10:51.014Z,40.20
2023-05-14T00:11:21.027Z,40.15
2023-05-14T00:11:51.011Z,40.18
2023-05-14T00:12:21.120Z,40.23
2023-05-14T00:12:51.242Z,40.18
2023-05-14T00:13:21.248Z,40.23
2023-05-14T00:13:51.343Z,40.21
2023-05-14T00:14:21.451Z,40.23
2023-05-14T00:14:51.560Z,40.20
2023-05-14T00:15:21.673Z,40.19
2023-05-14T00:15:51.853Z,40.23
2023-05-14T00:16:21.864Z,40.14
2023-05-14T00:16:51.895Z,40.18
2023-05-14T00:17:21.988Z,40.17
2023-05-14T00:17:52.101Z,40.14
2023-05-14T00:18:22.033Z,40.17
2023-05-14T00:18:52.226Z,40.19
2023-05-14T00:19:22.243Z,40.18
2023-05-14T00:19:52.344Z,40.19
2023-05-14T00:20:22.625Z,40.16
2023-05-14T00:20:52.563Z,40.17
2023-05-14T00:21:22.548Z,40.16
2023-05-14T00:21:52.659Z,40.16
2023-05-14T00:22:22.771Z,40.12
2023-05-14T00:22:52.887Z,40.14
2023-05-14T00:23:23.043Z,40.17
2023-05-14T00:23:53.012Z,40.17
2023-05-14T00:24:23.119Z,40.18
2023-05-14T00:24:53.251Z,40.16
2023-05-14T00:25:23.246Z,40.14
2023-05-14T00:25:53.245Z,40.14
2023-05-14T00:26:23.343Z,40.13
2023-05-14T00:26:53.475Z,40.11
2023-05-14T00:27:23.571Z,40.15
2023-05-14T00:27:53.699Z,40.18
2023-05-14T00:28:23.806Z,40.13
2023-05-14T00:28:53.797Z,40.20
2023-05-14T00:29:23.927Z,40.18
2023-05-14T00:29:53.919Z,40.11
2023-05-14T00:30:24.066Z,40.11
2023-05-14T00:30:54.012Z,40.10
2023-05-14T00:31:24.082Z,40.17
2023-05-14T00:31:54.160Z,40.15
2023-05-14T00:32:24.156Z,40.15
2023-05-14T00:32:54.243Z,40.15
2023-05-14T00:33:24.328Z,40.12
2023-05-14T00:33:54.409Z,40.14
2023-05-14T00:34:24.480Z,40.14
2023-05-14T00:34:54.553Z,40.15
2023-05-14T00:35:24.638Z,40.17
2023-05-14T00:35:54.734Z,40.15
2023-05-14T00:36:24.808Z,40.15
2023-05-14T00:36:54.875Z,40.12
2023-05-14T00:37:24.946Z,40.11
2023-05-14T00:37:55.033Z,40.15
2023-05-14T00:38:25.094Z,40.14
2023-05-14T00:38:55.171Z,40.17
2023-05-14T00:39:25.254Z,40.11
2023-05-14T00:39:55.314Z,40.15
2023-05-14T00:40:25.614Z,40.15
2023-05-14T00:40:55.459Z,40.17
2023-05-14T00:41:25.536Z,40.12
2023-05-14T00:41:55.611Z,40.09
2023-05-14T00:42:25.709Z,40.14
2023-05-14T00:42:55.821Z,40.14
2023-05-14T00:43:25.947Z,40.10
2023-05-14T00:43:56.069Z,40.12
2023-05-14T00:44:26.053Z,40.15
2023-05-14T00:44:56.181Z,40.12
2023-05-14T00:45:26.287Z,40.15
2023-05-14T00:45:56.400Z,40.12
2023-05-14T00:46:26.552Z,40.11
2023-05-14T00:46:56.564Z,40.09
2023-05-14T00:47:26.660Z,40.08
2023-05-14T00:47:56.711Z,40.11
2023-05-14T00:48:26.703Z,40.12
2023-05-14T00:48:56.690Z,40.07
2023-05-14T00:49:26.817Z,40.09
2023-05-14T00:49:56.900Z,40.07
2023-05-14T00:50:27.137Z,40.09
2023-05-14T00:50:57.020Z,40.06
2023-05-14T00:51:27.136Z,40.08
2023-05-14T00:51:57.247Z,40.08
2023-05-14T00:52:27.356Z,40.12
2023-05-14T00:52:57.382Z,40.09
2023-05-14T00:53:27.356Z,40.09
2023-05-14T00:53:57.484Z,40.11
2023-05-14T00:54:27.471Z,40.11
2023-05-14T00:54:57.581Z,40.06
2023-05-14T00:55:27.698Z,40.12
2023-05-14T00:55:57.809Z,40.17
2023-05-14T00:56:27.914Z,40.11
2023-05-14T00:56:58.030Z,40.12
2023-05-14T00:57:28.148Z,40.08
2023-05-14T00:57:58.162Z,40.05
2023-05-14T00:58:28.139Z,40.08
2023-05-14T00:58:58.256Z,40.11
2023-05-14T00:59:28.364Z,40.06
2023-05-14T00:59:58.553Z,40.08
2023-05-14T01:00:28.507Z,40.06
2023-05-14T01:00:58.655Z,40.08
2023-05-14T01:01:28.832Z,40.11
2023-05-14T01:01:58.757Z,40.06
2023-05-14T01:02:28.810Z,40.09
2023-05-14T01:02:58.892Z,40.09
2023-05-14T01:03:29.059Z,40.09
2023-05-14T01:03:59.123Z,40.06
2023-05-14T01:04:29.086Z,40.09
2023-05-14T01:04:59.188Z,40.08
2023-05-14T01:05:29.301Z,40.08
2023-05-14T01:05:59.418Z,40.03
2023-05-14T01:06:29.527Z,40.09
2023-05-14T01:06:59.659Z,40.08
2023-05-14T01:07:29.676Z,40.14
2023-05-14T01:07:59.637Z,40.09
2023-05-14T01:08:29.750Z,40.06
2023-05-14T01:08:59.860Z,40.11
2023-05-14T01:09:29.973Z,40.08
2023-05-14T01:10:00.178Z,40.04
2023-05-14T01:10:30.162Z,40.11
2023-05-14T01:11:00.274Z,40.08
2023-05-14T01:11:30.406Z,40.05
2023-05-14T01:12:00.598Z,40.03
2023-05-14T01:12:30.582Z,40.03
2023-05-14T01:13:00.703Z,40.03
2023-05-14T01:13:30.708Z,40.11
2023-05-14T01:14:00.813Z,40.09
2023-05-14T01:14:30.922Z,40.02
2023-05-14T01:15:01.048Z,40.06
2023-05-14T01:15:31.152Z,40.11
2023-05-14T01:16:01.299Z,40.08
2023-05-14T01:16:31.325Z,40.09
2023-05-14T01:17:01.364Z,40.08
2023-05-14T01:17:31.519Z,40.06
2023-05-14T01:18:01.578Z,40.06
2023-05-14T01:18:31.605Z,40.05
2023-05-14T01:19:01.654Z,40.11
2023-05-14T01:19:31.664Z,40.03
2023-05-14T01:20:01.776Z,40.09
2023-05-14T01:20:31.900Z,40.04
2023-05-14T01:21:01.901Z,40.06
2023-05-14T01:21:31.888Z,40.06
2023-05-14T01:22:02.002Z,40.06
2023-05-14T01:22:32.117Z,40.08
2023-05-14T01:23:02.229Z,40.08
2023-05-14T01:23:32.357Z,40.02
2023-05-14T01:24:02.454Z,40.02
2023-05-14T01:24:32.560Z,40.05
2023-05-14T01:25:02.698Z,40.07
2023-05-14T01:25:32.686Z,40.03
2023-05-14T01:26:02.670Z,40.06
2023-05-14T01:26:32.777Z,40.04
2023-05-14T01:27:02.909Z,40.08
2023-05-14T01:27:33.002Z,40.08
2023-05-14T01:28:03.120Z,40.06
2023-05-14T01:28:33.218Z,40.10
2023-05-14T01:29:03.332Z,40.07
2023-05-14T01:29:33.439Z,40.09
2023-05-14T01:30:03.576Z,40.07
2023-05-14T01:30:33.569Z,40.04
2023-05-14T01:31:03.669Z,40.06
2023-05-14T01:31:33.826Z,40.09
2023-05-14T01:32:03.910Z,40.06
2023-05-14T01:32:33.896Z,40.09
2023-05-14T01:33:04.078Z,40.10
2023-05-14T01:33:34.053Z,40.06
2023-05-14T01:34:04.124Z,40.07
2023-05-14T01:34:34.220Z,40.04
2023-05-14T01:35:04.370Z,40.03
2023-05-14T01:35:34.288Z,40.09
2023-05-14T01:36:04.368Z,40.03
2023-05-14T01:36:34.453Z,40.10
2023-05-14T01:37:04.525Z,40.06
2023-05-14T01:37:34.599Z,40.04
2023-05-14T01:38:04.685Z,40.03
2023-05-14T01:38:34.740Z,40.07
2023-05-14T01:39:04.822Z,40.06
2023-05-14T01:39:34.899Z,40.06
2023-05-14T01:40:04.982Z,40.07
2023-05-14T01:40:35.049Z,40.04
2023-05-14T01:41:05.141Z,40.07
2023-05-14T01:41:35.223Z,40.06
2023-05-14T01:42:05.279Z,40.04
2023-05-14T01:42:35.395Z,40.02
2023-05-14T01:43:05.532Z,40.06
2023-05-14T01:43:35.599Z,40.09
2023-05-14T01:44:05.607Z,40.04
2023-05-14T01:44:35.584Z,40.07
2023-05-14T01:45:05.702Z,40.03
2023-05-14T01:45:35.819Z,40.07
2023-05-14T01:46:05.856Z,40.09
2023-05-14T01:46:35.934Z,40.06
2023-05-14T01:47:05.936Z,40.04
2023-05-14T01:47:36.084Z,40.03
2023-05-14T01:48:06.107Z,40.07
2023-05-14T01:48:36.114Z,40.07
2023-05-14T01:49:06.093Z,40.07
2023-05-14T01:49:36.079Z,39.98
2023-05-14T01:50:06.194Z,40.07
2023-05-14T01:50:36.302Z,40.04
2023-05-14T01:51:06.416Z,40.02
2023-05-14T01:51:36.526Z,40.06
2023-05-14T01:52:06.638Z,40.04
2023-05-14T01:52:36.743Z,40.04
2023-05-14T01:53:07.120Z,40.03
2023-05-14T01:53:36.983Z,40.04
2023-05-14T01:54:06.964Z,40.03
2023-05-14T01:54:37.072Z,40.00
2023-05-14T01:55:07.203Z,40.03
2023-05-14T01:55:37.172Z,40.01
2023-05-14T01:56:07.280Z,40.00
2023-05-14T01:56:37.396Z,40.03
2023-05-14T01:57:07.510Z,40.01
2023-05-14T01:57:37.625Z,39.98
2023-05-14T01:58:07.745Z,40.04
2023-05-14T01:58:37.724Z,40.00
2023-05-14T01:59:07.845Z,39.99
2023-05-14T01:59:37.966Z,40.01
2023-05-14T02:00:08.063Z,40.02
2023-05-14T02:00:38.177Z,40.01
2023-05-14T02:01:08.321Z,40.06
2023-05-14T02:01:38.394Z,40.01
2023-05-14T02:02:08.425Z,40.00
2023-05-14T02:02:38.556Z,40.03
2023-05-14T02:03:08.640Z,40.00
2023-05-14T02:03:38.612Z,40.03
2023-05-14T02:04:08.673Z,39.96
2023-05-14T02:04:38.664Z,40.02
2023-05-14T02:05:08.770Z,39.96
2023-05-14T02:05:38.886Z,40.01
2023-05-14T02:06:09.002Z,39.98
2023-05-14T02:06:39.112Z,39.97
2023-05-14T02:07:09.236Z,39.94
2023-05-14T02:07:39.226Z,40.00
2023-05-14T02:08:09.211Z,39.97
2023-05-14T02:08:39.326Z,39.97
2023-05-14T02:09:09.433Z,40.00
2023-05-14T02:09:39.545Z,40.00
2023-05-14T02:10:09.653Z,40.01
2023-05-14T02:10:39.762Z,40.00
2023-05-14T02:11:09.878Z,40.00
2023-05-14T02:11:40.011Z,39.96
2023-05-14T02:12:10.005Z,39.96
2023-05-14T02:12:40.022Z,39.97
2023-05-14T02:13:09.988Z,39.96
2023-05-14T02:13:40.105Z,39.98
2023-05-14T02:14:10.219Z,40.00
2023-05-14T02:14:40.328Z,39.97
2023-05-14T02:15:10.444Z,39.98
2023-05-14T02:15:40.572Z,39.92
2023-05-14T02:16:10.650Z,39.95
2023-05-14T02:16:40.748Z,39.97
2023-05-14T02:17:10.717Z,39.97
2023-05-14T02:17:40.895Z,40.00
2023-05-14T02:18:10.896Z,39.94
2023-05-14T02:18:41.031Z,39.95
2023-05-14T02:19:11.056Z,39.98
2023-05-14T02:19:41.089Z,39.98
2023-05-14T02:20:11.080Z,39.98
2023-05-14T02:20:41.179Z,39.96
2023-05-14T02:21:11.317Z,40.03
2023-05-14T02:21:41.324Z,39.95
2023-05-14T02:22:11.299Z,40.01
2023-05-14T02:22:41.410Z,40.00
2023-05-14T02:23:11.518Z,40.00
2023-05-14T02:23:42.294Z,40.00
2023-05-14T02:24:11.696Z,39.95
2023-05-14T02:24:41.805Z,39.92
2023-05-14T02:25:11.916Z,39.95
2023-05-14T02:25:42.056Z,39.95
2023-05-14T02:26:12.065Z,39.98
2023-05-14T02:26:42.079Z,40.03
2023-05-14T02:27:12.051Z,40.00
2023-05-14T02:27:42.171Z,39.94
2023-05-14T02:28:12.235Z,40.00
2023-05-14T02:28:42.349Z,40.01
2023-05-14T02:29:12.456Z,40.03
2023-05-14T02:29:42.584Z,39.99
2023-05-14T02:30:12.686Z,39.98
2023-05-14T02:30:42.798Z,39.95
2023-05-14T02:31:12.846Z,40.02
2023-05-14T02:31:42.861Z,39.98
2023-05-14T02:32:12.889Z,40.01
2023-05-14T02:32:43.011Z,39.98
2023-05-14T02:33:13.030Z,39.95
2023-05-14T02:33:42.978Z,39.98
2023-05-14T02:34:12.952Z,40.01
2023-05-14T02:34:43.047Z,39.97
2023-05-14T02:35:13.141Z,39.92
2023-05-14T02:35:43.210Z,39.98
2023-05-14T02:36:13.278Z,39.98
2023-05-14T02:36:43.352Z,40.01
2023-05-14T02:37:13.448Z,39.98
2023-05-14T02:37:43.491Z,39.94
2023-05-14T02:38:13.572Z,39.96
2023-05-14T02:38:43.643Z,39.94
2023-05-14T02:39:13.715Z,39.95
2023-05-14T02:39:43.795Z,39.95
2023-05-14T02:40:13.879Z,39.98
2023-05-14T02:40:43.949Z,39.95
2023-05-14T02:41:14.027Z,39.95
2023-05-14T02:41:44.104Z,39.95
2023-05-14T02:42:14.184Z,39.96
2023-05-14T02:42:44.296Z,39.97
2023-05-14T02:43:14.403Z,39.97
2023-05-14T02:43:44.531Z,39.92
2023-05-14T02:44:14.633Z,39.89
2023-05-14T02:44:44.654Z,39.94
2023-05-14T02:45:14.639Z,39.91
2023-05-14T02:45:44.747Z,39.94
2023-05-14T02:46:14.911Z,39.89
2023-05-14T02:46:44.919Z,39.88
2023-05-14T02:47:14.890Z,39.92
2023-05-14T02:47:45.011Z,39.92
2023-05-14T02:48:15.109Z,39.91
2023-05-14T02:48:45.224Z,39.88
2023-05-14T02:49:15.366Z,39.84
2023-05-14T02:49:45.362Z,39.91
2023-05-14T02:50:15.499Z,39.91
2023-05-14T02:50:45.483Z,39.89
2023-05-14T02:51:15.575Z,39.88
2023-05-14T02:51:45.700Z,39.92
2023-05-14T02:52:15.808Z,39.85
2023-05-14T02:52:45.920Z,39.88
2023-05-14T02:53:16.028Z,39.84
2023-05-14T02:53:46.148Z,39.85
2023-05-14T02:54:16.150Z,39.85
2023-05-14T02:54:46.137Z,39.89
2023-05-14T02:55:16.250Z,39.84
2023-05-14T02:55:46.374Z,39.85
2023-05-14T02:56:16.362Z,39.87
2023-05-14T02:56:46.489Z,39.90
2023-05-14T02:57:16.596Z,39.85
2023-05-14T02:57:46.700Z,39.89
2023-05-14T02:58:16.825Z,39.85
2023-05-14T02:58:46.839Z,39.85
2023-05-14T02:59:16.818Z,39.86
2023-05-14T02:59:46.887Z,39.89
2023-05-14T03:00:16.972Z,39.84
2023-05-14T03:00:47.042Z,39.87
2023-05-14T03:01:17.065Z,39.91
2023-05-14T03:01:47.171Z,39.86
2023-05-14T03:02:17.343Z,39.86
2023-05-14T03:02:47.361Z,39.83
2023-05-14T03:03:17.452Z,39.88
2023-05-14T03:03:47.438Z,39.86
2023-05-14T03:04:17.475Z,39.85
2023-05-14T03:04:47.593Z,39.88
2023-05-14T03:05:17.699Z,39.89
2023-05-14T03:05:47.831Z,39.88
2023-05-14T03:06:17.924Z,39.89
2023-05-14T03:06:48.032Z,39.82
2023-05-14T03:07:18.150Z,39.82
2023-05-14T03:07:48.271Z,39.83
2023-05-14T03:08:18.261Z,39.83
2023-05-14T03:08:48.255Z,39.83
2023-05-14T03:09:18.359Z,39.79
2023-05-14T03:09:48.476Z,39.85
2023-05-14T03:10:18.587Z,39.86
2023-05-14T03:10:48.695Z,39.85
2023-05-14T03:11:18.810Z,39.87
2023-05-14T03:11:48.921Z,39.83
2023-05-14T03:12:19.056Z,39.83
2023-05-14T03:12:49.052Z,39.85
2023-05-14T03:13:19.159Z,39.86
2023-05-14T03:13:49.276Z,39.85
2023-05-14T03:14:19.396Z,39.86
2023-05-14T03:14:49.500Z,39.83
2023-05-14T03:15:19.621Z,39.85
2023-05-14T03:15:49.732Z,39.85
2023-05-14T03:16:19.888Z,39.83
2023-05-14T03:16:49.967Z,39.84
2023-05-14T03:17:19.924Z,39.90
2023-05-14T03:17:49.946Z,39.85
2023-05-14T03:18:19.944Z,39.89
2023-05-14T03:18:50.087Z,39.81
2023-05-14T03:19:20.072Z,39.88
2023-05-14T03:19:50.187Z,39.83
2023-05-14T03:20:20.299Z,39.86
2023-05-14T03:20:50.439Z,39.81
2023-05-14T03:21:20.527Z,39.84
2023-05-14T03:21:50.671Z,39.83
2023-05-14T03:22:20.656Z,39.80
2023-05-14T03:22:50.762Z,39.87
2023-05-14T03:23:20.894Z,39.86
2023-05-14T03:23:50.992Z,39.83
2023-05-14T03:24:21.096Z,39.89
2023-05-14T03:24:51.207Z,39.86
2023-05-14T03:25:21.321Z,39.83
2023-05-14T03:25:51.446Z,39.81
2023-05-14T03:26:21.581Z,39.83
2023-05-14T03:26:51.574Z,39.86
2023-05-14T03:27:21.692Z,39.86
2023-05-14T03:27:51.798Z,39.86
2023-05-14T03:28:21.908Z,39.86
2023-05-14T03:28:52.035Z,39.86
2023-05-14T03:29:22.136Z,39.80
2023-05-14T03:29:52.246Z,39.83
2023-05-14T03:30:22.549Z,39.84
2023-05-14T03:30:52.425Z,39.84
2023-05-14T03:31:22.442Z,39.80
2023-05-14T03:31:52.408Z,39.84
2023-05-14T03:32:22.518Z,39.84
2023-05-14T03:32:52.700Z,39.81
2023-05-14T03:33:22.679Z,39.83
2023-05-14T03:33:52.738Z,39.81
2023-05-14T03:34:22.806Z,39.83
2023-05-14T03:34:52.881Z,39.80
2023-05-14T03:35:22.963Z,39.83
2023-05-14T03:35:53.088Z,39.80
2023-05-14T03:36:23.133Z,39.86
2023-05-14T03:36:53.200Z,39.80
2023-05-14T03:37:23.275Z,39.84
2023-05-14T03:37:53.344Z,39.81
2023-05-14T03:38:23.418Z,39.80
2023-05-14T03:38:53.490Z,39.80
2023-05-14T03:39:23.569Z,39.78
2023-05-14T03:39:53.631Z,39.81
2023-05-14T03:40:24.004Z,39.82
2023-05-14T03:40:53.729Z,39.84
2023-05-14T03:41:23.803Z,39.86
2023-05-14T03:41:53.888Z,39.83
2023-05-14T03:42:23.982Z,39.78
2023-05-14T03:42:54.095Z,39.84
2023-05-14T03:43:24.216Z,39.81
2023-05-14T03:43:54.325Z,39.81
2023-05-14T03:44:24.436Z,39.81
2023-05-14T03:44:54.562Z,39.78
2023-05-14T03:45:24.684Z,39.80
2023-05-14T03:45:54.683Z,39.78
2023-05-14T03:46:24.771Z,39.80
2023-05-14T03:46:54.897Z,39.82
2023-05-14T03:47:25.026Z,39.80
2023-05-14T03:47:55.089Z,39.80
2023-05-14T03:48:25.181Z,39.80
2023-05-14T03:48:55.162Z,39.81
2023-05-14T03:49:25.183Z,39.81
2023-05-14T03:49:55.178Z,39.78
2023-05-14T03:50:25.525Z,39.77
2023-05-14T03:50:55.190Z,39.77
2023-05-14T03:51:25.309Z,39.77
2023-05-14T03:51:55.395Z,39.78
2023-05-14T03:52:25.509Z,39.77
2023-05-14T03:52:55.613Z,39.78
2023-05-14T03:53:25.728Z,39.78
2023-05-14T03:53:55.843Z,39.77
2023-05-14T03:54:25.967Z,39.77
2023-05-14T03:54:55.954Z,39.75
2023-05-14T03:55:26.060Z,39.77
2023-05-14T03:55:56.180Z,39.78
2023-05-14T03:56:26.305Z,39.78
2023-05-14T03:56:56.403Z,39.75
2023-05-14T03:57:26.392Z,39.74
2023-05-14T03:57:56.508Z,39.76
2023-05-14T03:58:26.643Z,39.75
2023-05-14T03:58:56.734Z,39.81
2023-05-14T03:59:26.842Z,39.72
2023-05-14T03:59:56.848Z,39.74
2023-05-14T04:00:27.008Z,39.77
2023-05-14T04:00:56.910Z,39.74
2023-05-14T04:01:27.026Z,39.75
2023-05-14T04:01:57.133Z,39.74
2023-05-14T04:02:27.321Z,39.74
2023-05-14T04:02:57.362Z,39.78
2023-05-14T04:03:27.562Z,39.75
2023-05-14T04:03:57.473Z,39.79
2023-05-14T04:04:27.550Z,39.78
2023-05-14T04:04:57.575Z,39.78
2023-05-14T04:05:27.616Z,39.72
2023-05-14T04:05:57.726Z,39.77
2023-05-14T04:06:27.839Z,39.76
2023-05-14T04:06:57.978Z,39.75
2023-05-14T04:07:28.078Z,39.72
2023-05-14T04:07:58.192Z,39.72
2023-05-14T04:08:28.192Z,39.78
2023-05-14T04:08:58.181Z,39.69
2023-05-14T04:09:28.291Z,39.72
2023-05-14T04:09:58.404Z,39.78
2023-05-14T04:10:28.522Z,39.70
2023-05-14T04:10:58.627Z,39.70
2023-05-14T04:11:28.740Z,39.71
2023-05-14T04:11:58.863Z,39.76
2023-05-14T04:12:28.956Z,39.69
2023-05-14T04:12:59.074Z,39.71
2023-05-14T04:13:29.061Z,39.78
2023-05-14T04:13:59.170Z,39.72
2023-05-14T04:14:29.280Z,39.63
2023-05-14T04:14:59.397Z,39.72
2023-05-14T04:15:29.541Z,39.68
2023-05-14T04:15:59.507Z,39.70
2023-05-14T04:16:29.687Z,39.74
2023-05-14T04:17:00.387Z,39.72
2023-05-14T04:17:29.761Z,39.69
2023-05-14T04:17:59.763Z,39.72
2023-05-14T04:18:29.826Z,39.74
2023-05-14T04:18:59.876Z,39.75
2023-05-14T04:19:29.841Z,39.70
2023-05-14T04:19:59.830Z,39.70
2023-05-14T04:20:29.934Z,39.68
2023-05-14T04:21:00.054Z,39.74
2023-05-14T04:21:30.162Z,39.69
2023-05-14T04:22:00.301Z,39.75
2023-05-14T04:22:30.310Z,39.68
2023-05-14T04:23:00.267Z,39.66
2023-05-14T04:23:30.380Z,39.69
2023-05-14T04:24:00.506Z,39.72
2023-05-14T04:24:30.605Z,39.72
2023-05-14T04:25:00.715Z,39.70
2023-05-14T04:25:30.821Z,39.70
2023-05-14T04:26:00.938Z,39.68
2023-05-14T04:26:31.070Z,39.69
2023-05-14T04:27:01.065Z,39.68
2023-05-14T04:27:31.049Z,39.70
2023-05-14T04:28:01.190Z,39.73
2023-05-14T04:28:31.153Z,39.72
2023-05-14T04:29:01.263Z,39.70
2023-05-14T04:29:31.381Z,39.74
2023-05-14T04:30:01.489Z,39.70
2023-05-14T04:30:31.609Z,39.70
2023-05-14T04:31:01.725Z,39.68
2023-05-14T04:31:31.909Z,39.69
2023-05-14T04:32:01.918Z,39.69
2023-05-14T04:32:32.024Z,39.69
2023-05-14T04:33:02.026Z,39.69
2023-05-14T04:33:31.973Z,39.68
2023-05-14T04:34:02.049Z,39.66
2023-05-14T04:34:32.157Z,39.66
2023-05-14T04:35:02.227Z,39.66
2023-05-14T04:35:32.302Z,39.63
2023-05-14T04:36:02.388Z,39.69
2023-05-14T04:36:32.483Z,39.63
2023-05-14T04:37:02.546Z,39.65
2023-05-14T04:37:32.621Z,39.66
2023-05-14T04:38:02.717Z,39.65
2023-05-14T04:38:32.760Z,39.68
2023-05-14T04:39:02.834Z,39.63
2023-05-14T04:39:32.901Z,39.66
2023-05-14T04:40:02.981Z,39.65
2023-05-14T04:40:33.082Z,39.62
2023-05-14T04:41:03.162Z,39.65
2023-05-14T04:41:33.243Z,39.60
2023-05-14T04:42:03.312Z,39.63
2023-05-14T04:42:33.436Z,39.63
2023-05-14T04:43:03.540Z,39.65
2023-05-14T04:43:33.655Z,39.60
2023-05-14T04:44:03.776Z,39.62
2023-05-14T04:44:33.888Z,39.61
2023-05-14T04:45:04.006Z,39.68
2023-05-14T04:45:34.487Z,39.69
2023-05-14T04:46:04.151Z,39.60
2023-05-14T04:46:34.349Z,39.66
2023-05-14T04:47:04.164Z,39.65
2023-05-14T04:47:34.350Z,39.61
2023-05-14T04:48:04.470Z,39.65
2023-05-14T04:48:34.496Z,39.65
2023-05-14T04:49:04.605Z,39.62
2023-05-14T04:49:34.730Z,39.62
2023-05-14T04:50:04.873Z,39.66
2023-05-14T04:50:34.857Z,39.65
2023-05-14T04:51:06.952Z,39.60
2023-05-14T04:51:34.893Z,39.66
2023-05-14T04:52:05.013Z,39.69
2023-05-14T04:52:35.120Z,39.65
2023-05-14T04:53:05.263Z,39.63
2023-05-14T04:53:35.349Z,39.66
2023-05-14T04:54:05.511Z,39.63
2023-05-14T04:54:35.520Z,39.61
2023-05-14T04:55:05.554Z,39.65
2023-05-14T04:55:35.536Z,39.65
2023-05-14T04:56:05.645Z,39.63
2023-05-14T04:56:35.778Z,39.65
2023-05-14T04:57:05.872Z,39.62
2023-05-14T04:57:35.999Z,39.61
2023-05-14T04:58:06.096Z,39.63
2023-05-14T04:58:36.212Z,39.62
2023-05-14T04:59:06.332Z,39.68
2023-05-14T04:59:36.328Z,39.63
2023-05-14T05:00:06.331Z,39.62
2023-05-14T05:00:36.425Z,39.60
2023-05-14T05:01:06.584Z,39.56
2023-05-14T05:01:36.592Z,39.63
2023-05-14T05:02:06.567Z,39.55
2023-05-14T05:02:36.722Z,39.62
2023-05-14T05:03:06.778Z,39.60
2023-05-14T05:03:36.844Z,39.53
2023-05-14T05:04:06.928Z,39.57
2023-05-14T05:04:36.922Z,39.63
2023-05-14T05:05:06.916Z,39.56
2023-05-14T05:05:37.017Z,39.60
2023-05-14T05:06:07.136Z,39.57
2023-05-14T05:06:37.157Z,39.56
2023-05-14T05:07:07.280Z,39.58
2023-05-14T05:07:37.389Z,39.59
2023-05-14T05:08:07.525Z,39.52
2023-05-14T05:08:37.649Z,39.56
2023-05-14T05:09:07.618Z,39.59
2023-05-14T05:09:37.726Z,39.53
2023-05-14T05:10:07.745Z,39.55
2023-05-14T05:10:37.864Z,39.55
2023-05-14T05:11:07.970Z,39.56
2023-05-14T05:11:38.078Z,39.50
2023-05-14T05:12:08.187Z,39.50
2023-05-14T05:12:38.301Z,39.52
2023-05-14T05:13:08.419Z,39.52
2023-05-14T05:13:38.410Z,39.47
2023-05-14T05:14:08.393Z,39.53
2023-05-14T05:14:38.506Z,39.50
2023-05-14T05:15:08.615Z,39.53
2023-05-14T05:15:38.776Z,39.50
2023-05-14T05:16:08.808Z,39.46
2023-05-14T05:16:38.794Z,39.52
2023-05-14T05:17:08.906Z,39.46
2023-05-14T05:17:39.042Z,39.53
2023-05-14T05:18:09.109Z,39.47
2023-05-14T05:18:39.221Z,39.49
2023-05-14T05:19:09.201Z,39.48
2023-05-14T05:19:43.696Z,39.52
2023-05-14T05:20:09.208Z,39.52
2023-05-14T05:20:39.276Z,39.50
2023-05-14T05:21:09.379Z,39.47
2023-05-14T05:21:39.498Z,39.46
2023-05-14T05:22:09.629Z,39.49
2023-05-14T05:22:39.619Z,39.49
2023-05-14T05:23:09.656Z,39.47
2023-05-14T05:23:39.624Z,39.46
2023-05-14T05:24:09.747Z,39.44
2023-05-14T05:24:39.854Z,39.50
2023-05-14T05:25:09.952Z,39.49
2023-05-14T05:25:40.017Z,39.46
2023-05-14T05:26:10.118Z,39.49
2023-05-14T05:26:40.239Z,39.43
2023-05-14T05:27:10.360Z,39.50
2023-05-14T05:27:40.373Z,39.44
2023-05-14T05:28:10.485Z,39.47
2023-05-14T05:28:40.597Z,39.49
2023-05-14T05:29:10.703Z,39.40
2023-05-14T05:29:40.815Z,39.43
2023-05-14T05:30:10.929Z,39.48
2023-05-14T05:30:41.046Z,39.48
2023-05-14T05:31:11.191Z,39.49
2023-05-14T05:31:41.279Z,39.44
2023-05-14T05:32:11.333Z,39.46
2023-05-14T05:32:41.293Z,39.46
2023-05-14T05:33:11.376Z,39.44
2023-05-14T05:33:41.436Z,39.43
2023-05-14T05:34:11.517Z,39.45
2023-05-14T05:34:41.586Z,39.44
2023-05-14T05:35:11.657Z,39.46
2023-05-14T05:35:41.722Z,39.43
2023-05-14T05:36:11.815Z,39.43
2023-05-14T05:36:41.894Z,39.40
2023-05-14T05:37:11.962Z,39.46
2023-05-14T05:37:42.037Z,39.44
2023-05-14T05:38:12.127Z,39.44
2023-05-14T05:38:42.184Z,39.44
2023-05-14T05:39:12.256Z,39.50
2023-05-14T05:39:42.324Z,39.44
2023-05-14T05:40:12.399Z,39.44
2023-05-14T05:40:42.481Z,39.40
2023-05-14T05:41:12.570Z,39.37
2023-05-14T05:41:42.647Z,39.44
2023-05-14T05:42:12.736Z,39.44
2023-05-14T05:42:42.846Z,39.42
2023-05-14T05:43:12.952Z,39.37
2023-05-14T05:43:43.070Z,39.39
2023-05-14T05:44:13.184Z,39.39
2023-05-14T05:44:43.292Z,39.43
2023-05-14T05:45:13.414Z,39.42
2023-05-14T05:45:43.539Z,39.42
2023-05-14T05:46:13.592Z,39.43
2023-05-14T05:46:43.608Z,39.37
2023-05-14T05:47:13.616Z,39.40
2023-05-14T05:47:43.628Z,39.42
2023-05-14T05:48:13.728Z,39.42
2023-05-14T05:48:43.782Z,39.40
2023-05-14T05:49:13.890Z,39.40
2023-05-14T05:49:43.999Z,39.42
2023-05-14T05:50:14.147Z,39.40
2023-05-14T05:50:44.116Z,39.37
2023-05-14T05:51:14.239Z,39.44
2023-05-14T05:51:44.348Z,39.42
2023-05-14T05:52:14.363Z,39.41
2023-05-14T05:52:44.474Z,39.44
2023-05-14T05:53:14.620Z,39.41
2023-05-14T05:53:44.701Z,39.44
2023-05-14T05:54:14.807Z,39.40
2023-05-14T05:54:44.978Z,39.37
2023-05-14T05:55:14.962Z,39.37
2023-05-14T05:55:44.946Z,39.39
2023-05-14T05:56:15.057Z,39.37
2023-05-14T05:56:45.176Z,39.36
2023-05-14T05:57:15.178Z,39.40
2023-05-14T05:57:45.290Z,39.37
2023-05-14T05:58:15.397Z,39.39
2023-05-14T05:58:45.511Z,39.36
2023-05-14T05:59:15.499Z,39.36
2023-05-14T05:59:45.619Z,39.42
2023-05-14T06:00:15.727Z,39.35
2023-05-14T06:00:45.839Z,39.39
2023-05-14T06:01:15.966Z,39.36
2023-05-14T06:01:46.091Z,39.36
2023-05-14T06:02:16.089Z,39.34
2023-05-14T06:02:46.242Z,39.31
2023-05-14T06:03:16.302Z,39.33
2023-05-14T06:03:48.364Z,39.37
2023-05-14T06:04:16.287Z,39.33
2023-05-14T06:04:46.413Z,39.37
2023-05-14T06:05:16.469Z,39.36
2023-05-14T06:05:46.545Z,39.33
2023-05-14T06:06:16.566Z,39.35
2023-05-14T06:06:46.555Z,39.31
2023-05-14T06:07:16.540Z,39.37
2023-05-14T06:07:46.662Z,39.32
2023-05-14T06:08:16.763Z,39.34
2023-05-14T06:08:46.901Z,39.34
2023-05-14T06:09:16.990Z,39.32
2023-05-14T06:09:47.111Z,39.32
2023-05-14T06:10:17.215Z,39.29
2023-05-14T06:10:47.807Z,39.36
2023-05-14T06:11:17.441Z,39.33
2023-05-14T06:11:47.451Z,39.37
2023-05-14T06:12:17.541Z,39.33
2023-05-14T06:12:47.653Z,39.33
2023-05-14T06:13:17.774Z,39.30
2023-05-14T06:13:47.875Z,39.30
2023-05-14T06:14:17.987Z,39.33
2023-05-14T06:14:48.103Z,39.34
2023-05-14T06:15:18.210Z,39.31
2023-05-14T06:15:48.340Z,39.37
2023-05-14T06:16:18.390Z,39.32
2023-05-14T06:16:48.435Z,39.29
2023-05-14T06:17:18.428Z,39.35
2023-05-14T06:17:48.440Z,39.30
2023-05-14T06:18:18.543Z,39.27
2023-05-14T06:18:48.714Z,39.30
2023-05-14T06:19:18.871Z,39.33
2023-05-14T06:19:48.789Z,39.31
2023-05-14T06:20:18.912Z,39.30
2023-05-14T06:20:48.920Z,39.33
2023-05-14T06:21:18.901Z,39.30
2023-05-14T06:21:49.016Z,39.33
2023-05-14T06:22:19.123Z,39.31
2023-05-14T06:22:49.234Z,39.32
2023-05-14T06:23:19.348Z,39.27
2023-05-14T06:23:49.461Z,39.29
2023-05-14T06:24:19.625Z,39.26
2023-05-14T06:24:49.610Z,39.25
2023-05-14T06:25:19.615Z,39.26
2023-05-14T06:25:50.751Z,39.28
2023-05-14T06:26:19.622Z,39.31
2023-05-14T06:26:49.729Z,39.25
2023-05-14T06:27:19.852Z,39.20